sensor_id;sensor_type;location;lat;lon;timestamp;temperature;humidity
79016;DHT22;68420;44.714;37.756;2023-04-03T00:00:47;25.20;41.60
79016;DHT22;68420;44.714;37.756;2023-04-03T00:01:50;25.18;41.56
79016;DHT22;68420;44.714;37.756;2023-04-03T00:02:51;25.20;41.65
79016;DHT22;68420;44.714;37.756;2023-04-03T00:03:52;25.20;41.61
79016;DHT22;68420;44.714;37.756;2023-04-03T00:04:54;25.18;41.58
79016;DHT22;68420;44.714;37.756;2023-04-03T00:05:55;25.18;41.54
79016;DHT22;68420;44.714;37.756;2023-04-03T00:06:56;25.19;41.59
79016;DHT22;68420;44.714;37.756;2023-04-03T00:07:58;25.18;41.58
79016;DHT22;68420;44.714;37.756;2023-04-03T00:08:59;25.22;41.61
79016;DHT22;68420;44.714;37.756;2023-04-03T00:10:00;25.18;41.54
79016;DHT22;68420;44.714;37.756;2023-04-03T00:11:03;25.19;41.55
79016;DHT22;68420;44.714;37.756;2023-04-03T00:12:04;25.19;41.55
79016;DHT22;68420;44.714;37.756;2023-04-03T00:13:06;25.19;41.55
79016;DHT22;68420;44.714;37.756;2023-04-03T00:14:08;25.19;41.60
79016;DHT22;68420;44.714;37.756;2023-04-03T00:15:09;25.16;41.60
79016;DHT22;68420;44.714;37.756;2023-04-03T00:16:11;25.20;41.58
79016;DHT22;68420;44.714;37.756;2023-04-03T00:17:13;25.19;41.57
79016;DHT22;68420;44.714;37.756;2023-04-03T00:18:14;25.20;41.54
79016;DHT22;68420;44.714;37.756;2023-04-03T00:19:15;25.20;41.54
79016;DHT22;68420;44.714;37.756;2023-04-03T00:20:17;25.18;41.53
79016;DHT22;68420;44.714;37.756;2023-04-03T00:21:18;25.22;41.54
79016;DHT22;68420;44.714;37.756;2023-04-03T00:22:20;25.19;41.60
79016;DHT22;68420;44.714;37.756;2023-04-03T00:23:21;25.20;41.53
79016;DHT22;68420;44.714;37.756;2023-04-03T00:24:24;25.23;41.46
79016;DHT22;68420;44.714;37.756;2023-04-03T00:25:25;25.22;41.46
79016;DHT22;68420;44.714;37.756;2023-04-03T00:26:27;25.22;41.48
79016;DHT22;68420;44.714;37.756;2023-04-03T00:27:28;25.23;41.45
79016;DHT22;68420;44.714;37.756;2023-04-03T00:28:29;25.22;41.48
79016;DHT22;68420;44.714;37.756;2023-04-03T00:29:31;25.20;41.50
79016;DHT22;68420;44.714;37.756;2023-04-03T00:30:32;25.19;41.50
79016;DHT22;68420;44.714;37.756;2023-04-03T00:31:34;25.18;41.53
79016;DHT22;68420;44.714;37.756;2023-04-03T00:32:35;25.19;41.47
79016;DHT22;68420;44.714;37.756;2023-04-03T00:33:36;25.22;41.53
79016;DHT22;68420;44.714;37.756;2023-04-03T00:34:38;25.22;41.52
79016;DHT22;68420;44.714;37.756;2023-04-03T00:35:39;25.19;41.49
79016;DHT22;68420;44.714;37.756;2023-04-03T00:36:41;25.19;41.48
79016;DHT22;68420;44.714;37.756;2023-04-03T00:37:43;25.22;41.50
79016;DHT22;68420;44.714;37.756;2023-04-03T00:38:44;25.22;41.45
79016;DHT22;68420;44.714;37.756;2023-04-03T00:39:46;25.23;41.48
79016;DHT22;68420;44.714;37.756;2023-04-03T00:40:49;25.20;41.49
79016;DHT22;68420;44.714;37.756;2023-04-03T00:41:50;25.20;41.51
79016;DHT22;68420;44.714;37.756;2023-04-03T00:42:56;25.19;41.53
79016;DHT22;68420;44.714;37.756;2023-04-03T00:43:57;25.20;41.47
79016;DHT22;68420;44.714;37.756;2023-04-03T00:46:01;25.19;41.46
79016;DHT22;68420;44.714;37.756;2023-04-03T00:47:05;25.19;41.55
79016;DHT22;68420;44.714;37.756;2023-04-03T00:48:10;25.19;41.54
79016;DHT22;68420;44.714;37.756;2023-04-03T00:49:13;25.22;41.49
79016;DHT22;68420;44.714;37.756;2023-04-03T00:50:15;25.20;41.49
79016;DHT22;68420;44.714;37.756;2023-04-03T00:51:21;25.20;41.43
79016;DHT22;68420;44.714;37.756;2023-04-03T00:52:28;25.20;41.51
79016;DHT22;68420;44.714;37.756;2023-04-03T00:53:35;25.20;41.50
79016;DHT22;68420;44.714;37.756;2023-04-03T00:54:38;25.16;41.53
79016;DHT22;68420;44.714;37.756;2023-04-03T00:55:41;25.18;41.54
79016;DHT22;68420;44.714;37.756;2023-04-03T00:56:44;25.19;41.55
79016;DHT22;68420;44.714;37.756;2023-04-03T00:57:46;25.18;41.51
79016;DHT22;68420;44.714;37.756;2023-04-03T00:58:59;25.19;41.52
79016;DHT22;68420;44.714;37.756;2023-04-03T01:00:07;25.19;41.55
79016;DHT22;68420;44.714;37.756;2023-04-03T01:01:13;25.18;41.53
79016;DHT22;68420;44.714;37.756;2023-04-03T01:02:17;25.19;41.52
79016;DHT22;68420;44.714;37.756;2023-04-03T01:03:19;25.19;41.55
79016;DHT22;68420;44.714;37.756;2023-04-03T01:04:38;25.18;41.59
79016;DHT22;68420;44.714;37.756;2023-04-03T01:05:40;25.15;41.56
79016;DHT22;68420;44.714;37.756;2023-04-03T01:06:41;25.13;41.63
79016;DHT22;68420;44.714;37.756;2023-04-03T01:07:43;25.15;41.60
79016;DHT22;68420;44.714;37.756;2023-04-03T01:08:47;25.15;41.55
79016;DHT22;68420;44.714;37.756;2023-04-03T01:09:52;25.16;41.56
79016;DHT22;68420;44.714;37.756;2023-04-03T01:10:55;25.13;41.56
79016;DHT22;68420;44.714;37.756;2023-04-03T01:12:24;25.15;41.52
79016;DHT22;68420;44.714;37.756;2023-04-03T01:13:31;25.13;41.61
79016;DHT22;68420;44.714;37.756;2023-04-03T01:14:33;25.15;41.62
79016;DHT22;68420;44.714;37.756;2023-04-03T01:15:34;25.11;41.65
79016;DHT22;68420;44.714;37.756;2023-04-03T01:16:36;25.12;41.61
79016;DHT22;68420;44.714;37.756;2023-04-03T01:17:46;25.12;41.62
79016;DHT22;68420;44.714;37.756;2023-04-03T01:18:48;25.12;41.63
79016;DHT22;68420;44.714;37.756;2023-04-03T01:20:41;25.13;41.60
79016;DHT22;68420;44.714;37.756;2023-04-03T01:23:22;25.11;41.60
79016;DHT22;68420;44.714;37.756;2023-04-03T01:24:26;25.11;41.65
79016;DHT22;68420;44.714;37.756;2023-04-03T01:25:30;25.09;41.73
79016;DHT22;68420;44.714;37.756;2023-04-03T01:26:33;25.08;41.68
79016;DHT22;68420;44.714;37.756;2023-04-03T01:27:34;25.11;41.70
79016;DHT22;68420;44.714;37.756;2023-04-03T01:28:36;25.09;41.65
79016;DHT22;68420;44.714;37.756;2023-04-03T01:29:37;25.11;41.66
79016;DHT22;68420;44.714;37.756;2023-04-03T01:31:03;25.12;41.65
79016;DHT22;68420;44.714;37.756;2023-04-03T01:32:08;25.09;41.77
79016;DHT22;68420;44.714;37.756;2023-04-03T01:33:10;25.09;41.82
79016;DHT22;68420;44.714;37.756;2023-04-03T01:34:11;25.12;41.85
79016;DHT22;68420;44.714;37.756;2023-04-03T01:35:13;25.13;41.87
79016;DHT22;68420;44.714;37.756;2023-04-03T01:36:18;25.15;41.78
79016;DHT22;68420;44.714;37.756;2023-04-03T01:37:19;25.19;41.69
79016;DHT22;68420;44.714;37.756;2023-04-03T01:38:22;25.23;41.55
79016;DHT22;68420;44.714;37.756;2023-04-03T01:39:24;25.23;41.59
79016;DHT22;68420;44.714;37.756;2023-04-03T01:40:26;25.25;41.42
79016;DHT22;68420;44.714;37.756;2023-04-03T01:41:27;25.30;41.38
79016;DHT22;68420;44.714;37.756;2023-04-03T01:42:35;25.32;41.27
79016;DHT22;68420;44.714;37.756;2023-04-03T01:43:36;25.32;41.20
79016;DHT22;68420;44.714;37.756;2023-04-03T01:44:37;25.32;41.21
79016;DHT22;68420;44.714;37.756;2023-04-03T01:45:39;25.36;41.11
79016;DHT22;68420;44.714;37.756;2023-04-03T01:46:40;25.39;41.18
79016;DHT22;68420;44.714;37.756;2023-04-03T01:47:43;25.40;41.04
79016;DHT22;68420;44.714;37.756;2023-04-03T01:48:44;25.39;41.11
79016;DHT22;68420;44.714;37.756;2023-04-03T01:49:46;25.40;41.01
79016;DHT22;68420;44.714;37.756;2023-04-03T01:50:47;25.42;40.99
79016;DHT22;68420;44.714;37.756;2023-04-03T01:51:48;25.37;41.04
79016;DHT22;68420;44.714;37.756;2023-04-03T01:52:50;25.37;41.11
79016;DHT22;68420;44.714;37.756;2023-04-03T01:53:51;25.37;40.99
79016;DHT22;68420;44.714;37.756;2023-04-03T01:54:53;25.39;40.96
79016;DHT22;68420;44.714;37.756;2023-04-03T01:55:54;25.40;40.98
79016;DHT22;68420;44.714;37.756;2023-04-03T01:56:55;25.39;41.02
79016;DHT22;68420;44.714;37.756;2023-04-03T01:57:57;25.43;40.94
79016;DHT22;68420;44.714;37.756;2023-04-03T01:58:58;25.43;40.96
79016;DHT22;68420;44.714;37.756;2023-04-03T02:00:00;25.43;40.85
79016;DHT22;68420;44.714;37.756;2023-04-03T02:01:01;25.40;40.79
79016;DHT22;68420;44.714;37.756;2023-04-03T02:02:04;25.43;40.84
79016;DHT22;68420;44.714;37.756;2023-04-03T02:03:05;25.43;40.87
79016;DHT22;68420;44.714;37.756;2023-04-03T02:04:07;25.40;40.82
79016;DHT22;68420;44.714;37.756;2023-04-03T02:05:09;25.43;40.82
79016;DHT22;68420;44.714;37.756;2023-04-03T02:06:10;25.43;40.82
79016;DHT22;68420;44.714;37.756;2023-04-03T02:07:12;25.43;40.82
79016;DHT22;68420;44.714;37.756;2023-04-03T02:08:13;25.42;40.80
79016;DHT22;68420;44.714;37.756;2023-04-03T02:09:15;25.44;40.81
79016;DHT22;68420;44.714;37.756;2023-04-03T02:10:16;25.42;40.82
79016;DHT22;68420;44.714;37.756;2023-04-03T02:11:17;25.43;40.75
79016;DHT22;68420;44.714;37.756;2023-04-03T02:12:19;25.44;40.76
79016;DHT22;68420;44.714;37.756;2023-04-03T02:13:20;25.43;40.77
79016;DHT22;68420;44.714;37.756;2023-04-03T02:14:22;25.40;40.71
79016;DHT22;68420;44.714;37.756;2023-04-03T02:15:24;25.44;40.67
79016;DHT22;68420;44.714;37.756;2023-04-03T02:16:26;25.43;40.69
79016;DHT22;68420;44.714;37.756;2023-04-03T02:17:27;25.44;40.71
79016;DHT22;68420;44.714;37.756;2023-04-03T02:18:29;25.43;40.71
79016;DHT22;68420;44.714;37.756;2023-04-03T02:19:31;25.42;40.70
79016;DHT22;68420;44.714;37.756;2023-04-03T02:20:32;25.44;40.82
79016;DHT22;68420;44.714;37.756;2023-04-03T02:21:34;25.42;40.72
79016;DHT22;68420;44.714;37.756;2023-04-03T02:22:35;25.43;40.70
79016;DHT22;68420;44.714;37.756;2023-04-03T02:23:37;25.46;40.69
79016;DHT22;68420;44.714;37.756;2023-04-03T02:24:38;25.43;40.71
79016;DHT22;68420;44.714;37.756;2023-04-03T02:25:41;25.44;40.70
79016;DHT22;68420;44.714;37.756;2023-04-03T02:26:42;25.42;40.71
79016;DHT22;68420;44.714;37.756;2023-04-03T02:27:43;25.43;40.69
79016;DHT22;68420;44.714;37.756;2023-04-03T02:28:45;25.43;40.72
79016;DHT22;68420;44.714;37.756;2023-04-03T02:29:47;25.43;40.63
79016;DHT22;68420;44.714;37.756;2023-04-03T02:30:48;25.44;40.65
79016;DHT22;68420;44.714;37.756;2023-04-03T02:31:50;25.44;40.67
79016;DHT22;68420;44.714;37.756;2023-04-03T02:32:53;25.43;40.68
79016;DHT22;68420;44.714;37.756;2023-04-03T02:33:54;25.42;40.65
79016;DHT22;68420;44.714;37.756;2023-04-03T02:34:55;25.43;40.70
79016;DHT22;68420;44.714;37.756;2023-04-03T02:35:58;25.44;40.62
79016;DHT22;68420;44.714;37.756;2023-04-03T02:37:00;25.44;40.65
79016;DHT22;68420;44.714;37.756;2023-04-03T02:38:01;25.42;40.67
79016;DHT22;68420;44.714;37.756;2023-04-03T02:39:03;25.44;40.69
79016;DHT22;68420;44.714;37.756;2023-04-03T02:40:05;25.43;40.63
79016;DHT22;68420;44.714;37.756;2023-04-03T02:41:09;25.44;40.62
79016;DHT22;68420;44.714;37.756;2023-04-03T02:42:11;25.42;40.58
79016;DHT22;68420;44.714;37.756;2023-04-03T02:43:12;25.44;40.63
79016;DHT22;68420;44.714;37.756;2023-04-03T02:44:14;25.42;40.65
79016;DHT22;68420;44.714;37.756;2023-04-03T02:45:15;25.40;40.71
79016;DHT22;68420;44.714;37.756;2023-04-03T02:46:17;25.43;40.67
79016;DHT22;68420;44.714;37.756;2023-04-03T02:47:18;25.40;40.65
79016;DHT22;68420;44.714;37.756;2023-04-03T02:48:19;25.42;40.59
79016;DHT22;68420;44.714;37.756;2023-04-03T02:49:21;25.42;40.61
79016;DHT22;68420;44.714;37.756;2023-04-03T02:50:22;25.43;40.63
79016;DHT22;68420;44.714;37.756;2023-04-03T02:51:24;25.43;40.70
79016;DHT22;68420;44.714;37.756;2023-04-03T02:52:26;25.42;40.63
79016;DHT22;68420;44.714;37.756;2023-04-03T02:53:30;25.44;40.61
79016;DHT22;68420;44.714;37.756;2023-04-03T02:54:34;25.44;40.58
79016;DHT22;68420;44.714;37.756;2023-04-03T02:55:39;25.46;40.55
79016;DHT22;68420;44.714;37.756;2023-04-03T02:56:40;25.44;40.58
79016;DHT22;68420;44.714;37.756;2023-04-03T02:57:42;25.43;40.54
79016;DHT22;68420;44.714;37.756;2023-04-03T02:58:44;25.42;40.61
79016;DHT22;68420;44.714;37.756;2023-04-03T02:59:45;25.44;40.49
79016;DHT22;68420;44.714;37.756;2023-04-03T03:00:47;25.43;40.55
79016;DHT22;68420;44.714;37.756;2023-04-03T03:01:48;25.44;40.54
79016;DHT22;68420;44.714;37.756;2023-04-03T03:02:50;25.43;40.52
79016;DHT22;68420;44.714;37.756;2023-04-03T03:03:51;25.43;40.49
79016;DHT22;68420;44.714;37.756;2023-04-03T03:04:52;25.42;40.54
79016;DHT22;68420;44.714;37.756;2023-04-03T03:07:04;25.44;40.53
79016;DHT22;68420;44.714;37.756;2023-04-03T03:08:06;25.44;40.55
79016;DHT22;68420;44.714;37.756;2023-04-03T03:09:07;25.46;40.48
79016;DHT22;68420;44.714;37.756;2023-04-03T03:10:09;25.44;40.45
79016;DHT22;68420;44.714;37.756;2023-04-03T03:11:10;25.46;40.48
79016;DHT22;68420;44.714;37.756;2023-04-03T03:12:12;25.44;40.52
79016;DHT22;68420;44.714;37.756;2023-04-03T03:13:13;25.43;40.54
79016;DHT22;68420;44.714;37.756;2023-04-03T03:14:14;25.42;40.53
79016;DHT22;68420;44.714;37.756;2023-04-03T03:15:16;25.42;40.57
79016;DHT22;68420;44.714;37.756;2023-04-03T03:16:18;25.42;40.51
79016;DHT22;68420;44.714;37.756;2023-04-03T03:17:19;25.44;40.53
79016;DHT22;68420;44.714;37.756;2023-04-03T03:18:22;25.46;40.54
79016;DHT22;68420;44.714;37.756;2023-04-03T03:19:23;25.43;40.50
79016;DHT22;68420;44.714;37.756;2023-04-03T03:20:26;25.47;40.46
79016;DHT22;68420;44.714;37.756;2023-04-03T03:21:27;25.46;40.35
79016;DHT22;68420;44.714;37.756;2023-04-03T03:22:29;25.44;40.42
79016;DHT22;68420;44.714;37.756;2023-04-03T03:23:31;25.43;40.48
79016;DHT22;68420;44.714;37.756;2023-04-03T03:24:33;25.44;40.40
79016;DHT22;68420;44.714;37.756;2023-04-03T03:25:38;25.44;40.38
79016;DHT22;68420;44.714;37.756;2023-04-03T03:26:40;25.49;40.35
79016;DHT22;68420;44.714;37.756;2023-04-03T03:27:41;25.46;40.41
79016;DHT22;68420;44.714;37.756;2023-04-03T03:28:42;25.44;40.39
79016;DHT22;68420;44.714;37.756;2023-04-03T03:29:46;25.44;40.35
79016;DHT22;68420;44.714;37.756;2023-04-03T03:30:49;25.46;40.35
79016;DHT22;68420;44.714;37.756;2023-04-03T03:31:51;25.46;40.37
79016;DHT22;68420;44.714;37.756;2023-04-03T03:32:52;25.46;40.30
79016;DHT22;68420;44.714;37.756;2023-04-03T03:33:54;25.47;40.25
79016;DHT22;68420;44.714;37.756;2023-04-03T03:34:57;25.47;40.28
79016;DHT22;68420;44.714;37.756;2023-04-03T03:35:58;25.46;40.28
79016;DHT22;68420;44.714;37.756;2023-04-03T03:36:59;25.49;40.23
79016;DHT22;68420;44.714;37.756;2023-04-03T03:38:01;25.46;40.23
79016;DHT22;68420;44.714;37.756;2023-04-03T03:39:02;25.46;40.26
79016;DHT22;68420;44.714;37.756;2023-04-03T03:40:04;25.49;40.23
79016;DHT22;68420;44.714;37.756;2023-04-03T03:41:06;25.47;40.19
79016;DHT22;68420;44.714;37.756;2023-04-03T03:42:09;25.47;40.24
79016;DHT22;68420;44.714;37.756;2023-04-03T03:43:11;25.47;40.16
79016;DHT22;68420;44.714;37.756;2023-04-03T03:44:12;25.47;40.22
79016;DHT22;68420;44.714;37.756;2023-04-03T03:45:14;25.46;40.20
79016;DHT22;68420;44.714;37.756;2023-04-03T03:46:16;25.46;40.17
79016;DHT22;68420;44.714;37.756;2023-04-03T03:47:18;25.44;40.20
79016;DHT22;68420;44.714;37.756;2023-04-03T03:48:20;25.49;40.20
79016;DHT22;68420;44.714;37.756;2023-04-03T03:49:22;25.46;40.20
79016;DHT22;68420;44.714;37.756;2023-04-03T03:50:23;25.47;40.16
79016;DHT22;68420;44.714;37.756;2023-04-03T03:51:25;25.46;40.16
79016;DHT22;68420;44.714;37.756;2023-04-03T03:52:26;25.44;40.12
79016;DHT22;68420;44.714;37.756;2023-04-03T03:53:28;25.46;40.18
79016;DHT22;68420;44.714;37.756;2023-04-03T03:54:34;25.43;40.14
79016;DHT22;68420;44.714;37.756;2023-04-03T03:55:35;25.44;40.14
79016;DHT22;68420;44.714;37.756;2023-04-03T03:56:36;25.44;40.14
79016;DHT22;68420;44.714;37.756;2023-04-03T03:57:38;25.43;40.15
79016;DHT22;68420;44.714;37.756;2023-04-03T03:58:40;25.44;40.14
79016;DHT22;68420;44.714;37.756;2023-04-03T03:59:41;25.43;40.18
79016;DHT22;68420;44.714;37.756;2023-04-03T04:00:44;25.43;40.21
79016;DHT22;68420;44.714;37.756;2023-04-03T04:01:46;25.44;40.26
79016;DHT22;68420;44.714;37.756;2023-04-03T04:02:47;25.46;40.28
79016;DHT22;68420;44.714;37.756;2023-04-03T04:03:52;25.47;40.26
79016;DHT22;68420;44.714;37.756;2023-04-03T04:04:59;25.47;40.24
79016;DHT22;68420;44.714;37.756;2023-04-03T04:06:00;25.46;40.25
79016;DHT22;68420;44.714;37.756;2023-04-03T04:07:03;25.43;40.28
79016;DHT22;68420;44.714;37.756;2023-04-03T04:08:05;25.44;40.20
79016;DHT22;68420;44.714;37.756;2023-04-03T04:09:08;25.44;40.19
79016;DHT22;68420;44.714;37.756;2023-04-03T04:10:10;25.43;40.24
79016;DHT22;68420;44.714;37.756;2023-04-03T04:11:11;25.43;40.19
79016;DHT22;68420;44.714;37.756;2023-04-03T04:12:14;25.42;40.18
79016;DHT22;68420;44.714;37.756;2023-04-03T04:13:16;25.40;40.24
79016;DHT22;68420;44.714;37.756;2023-04-03T04:14:19;25.42;40.26
79016;DHT22;68420;44.714;37.756;2023-04-03T04:15:21;25.42;40.34
79016;DHT22;68420;44.714;37.756;2023-04-03T04:16:24;25.40;40.45
79016;DHT22;68420;44.714;37.756;2023-04-03T04:17:25;25.42;40.49
79016;DHT22;68420;44.714;37.756;2023-04-03T04:18:27;25.43;40.51
79016;DHT22;68420;44.714;37.756;2023-04-03T04:19:28;25.43;40.45
79016;DHT22;68420;44.714;37.756;2023-04-03T04:20:30;25.44;40.41
79016;DHT22;68420;44.714;37.756;2023-04-03T04:21:31;25.44;40.35
79016;DHT22;68420;44.714;37.756;2023-04-03T04:22:33;25.46;40.38
79016;DHT22;68420;44.714;37.756;2023-04-03T04:23:34;25.46;40.40
79016;DHT22;68420;44.714;37.756;2023-04-03T04:24:36;25.47;40.37
79016;DHT22;68420;44.714;37.756;2023-04-03T04:25:37;25.47;40.30
79016;DHT22;68420;44.714;37.756;2023-04-03T04:26:39;25.46;40.20
79016;DHT22;68420;44.714;37.756;2023-04-03T04:27:42;25.46;40.33
79016;DHT22;68420;44.714;37.756;2023-04-03T04:28:43;25.46;40.23
79016;DHT22;68420;44.714;37.756;2023-04-03T04:29:45;25.49;40.26
79016;DHT22;68420;44.714;37.756;2023-04-03T04:30:47;25.47;40.26
79016;DHT22;68420;44.714;37.756;2023-04-03T04:31:49;25.46;40.34
79016;DHT22;68420;44.714;37.756;2023-04-03T04:32:51;25.47;40.44
79016;DHT22;68420;44.714;37.756;2023-04-03T04:33:53;25.46;40.47
79016;DHT22;68420;44.714;37.756;2023-04-03T04:34:54;25.44;40.44
79016;DHT22;68420;44.714;37.756;2023-04-03T04:35:56;25.46;40.48
79016;DHT22;68420;44.714;37.756;2023-04-03T04:36:57;25.46;40.57
79016;DHT22;68420;44.714;37.756;2023-04-03T04:37:59;25.44;40.66
79016;DHT22;68420;44.714;37.756;2023-04-03T04:39:00;25.43;40.76
79016;DHT22;68420;44.714;37.756;2023-04-03T04:40:02;25.43;40.78
79016;DHT22;68420;44.714;37.756;2023-04-03T04:41:04;25.40;40.78
79016;DHT22;68420;44.714;37.756;2023-04-03T04:42:06;25.36;40.91
79016;DHT22;68420;44.714;37.756;2023-04-03T04:43:08;25.36;40.88
79016;DHT22;68420;44.714;37.756;2023-04-03T04:44:11;25.33;40.93
79016;DHT22;68420;44.714;37.756;2023-04-03T04:45:13;25.34;40.88
79016;DHT22;68420;44.714;37.756;2023-04-03T04:46:17;25.29;40.92
79016;DHT22;68420;44.714;37.756;2023-04-03T04:47:24;25.26;40.97
79016;DHT22;68420;44.714;37.756;2023-04-03T04:48:26;25.26;41.09
79016;DHT22;68420;44.714;37.756;2023-04-03T04:49:28;25.22;41.10
79016;DHT22;68420;44.714;37.756;2023-04-03T04:50:29;25.20;41.11
79016;DHT22;68420;44.714;37.756;2023-04-03T04:51:31;25.22;41.13
79016;DHT22;68420;44.714;37.756;2023-04-03T04:52:33;25.20;41.11
79016;DHT22;68420;44.714;37.756;2023-04-03T04:53:34;25.20;41.17
79016;DHT22;68420;44.714;37.756;2023-04-03T04:54:36;25.19;41.14
79016;DHT22;68420;44.714;37.756;2023-04-03T04:55:37;25.18;41.15
79016;DHT22;68420;44.714;37.756;2023-04-03T04:56:38;25.20;41.14
79016;DHT22;68420;44.714;37.756;2023-04-03T04:57:40;25.20;41.16
79016;DHT22;68420;44.714;37.756;2023-04-03T04:58:42;25.20;41.10
79016;DHT22;68420;44.714;37.756;2023-04-03T04:59:43;25.22;41.07
79016;DHT22;68420;44.714;37.756;2023-04-03T05:00:45;25.20;41.07
79016;DHT22;68420;44.714;37.756;2023-04-03T05:01:46;25.19;41.10
79016;DHT22;68420;44.714;37.756;2023-04-03T05:02:50;25.20;41.11
79016;DHT22;68420;44.714;37.756;2023-04-03T05:03:53;25.20;41.10
79016;DHT22;68420;44.714;37.756;2023-04-03T05:04:55;25.20;41.11
79016;DHT22;68420;44.714;37.756;2023-04-03T05:06:01;25.20;41.09
79016;DHT22;68420;44.714;37.756;2023-04-03T05:07:05;25.20;41.10
79016;DHT22;68420;44.714;37.756;2023-04-03T05:08:09;25.16;41.15
79016;DHT22;68420;44.714;37.756;2023-04-03T05:09:13;25.18;41.10
79016;DHT22;68420;44.714;37.756;2023-04-03T05:10:16;25.18;41.11
79016;DHT22;68420;44.714;37.756;2023-04-03T05:11:17;25.19;41.10
79016;DHT22;68420;44.714;37.756;2023-04-03T05:12:21;25.19;41.05
79016;DHT22;68420;44.714;37.756;2023-04-03T05:13:28;25.19;41.10
79016;DHT22;68420;44.714;37.756;2023-04-03T05:14:31;25.20;41.05
79016;DHT22;68420;44.714;37.756;2023-04-03T05:15:37;25.22;41.01
79016;DHT22;68420;44.714;37.756;2023-04-03T05:16:38;25.20;40.99
79016;DHT22;68420;44.714;37.756;2023-04-03T05:17:41;25.23;41.01
79016;DHT22;68420;44.714;37.756;2023-04-03T05:18:46;25.22;40.99
79016;DHT22;68420;44.714;37.756;2023-04-03T05:19:52;25.22;40.99
79016;DHT22;68420;44.714;37.756;2023-04-03T05:20:55;25.22;41.03
79016;DHT22;68420;44.714;37.756;2023-04-03T05:21:59;25.23;40.97
79016;DHT22;68420;44.714;37.756;2023-04-03T05:23:00;25.19;40.99
79016;DHT22;68420;44.714;37.756;2023-04-03T05:24:02;25.22;41.00
79016;DHT22;68420;44.714;37.756;2023-04-03T05:25:07;25.19;40.98
79016;DHT22;68420;44.714;37.756;2023-04-03T05:26:09;25.20;40.98
79016;DHT22;68420;44.714;37.756;2023-04-03T05:27:10;25.20;41.00
79016;DHT22;68420;44.714;37.756;2023-04-03T05:28:15;25.22;40.97
79016;DHT22;68420;44.714;37.756;2023-04-03T05:29:16;25.20;40.93
79016;DHT22;68420;44.714;37.756;2023-04-03T05:30:17;25.23;40.96
79016;DHT22;68420;44.714;37.756;2023-04-03T05:31:19;25.23;40.95
79016;DHT22;68420;44.714;37.756;2023-04-03T05:32:23;25.25;40.97
79016;DHT22;68420;44.714;37.756;2023-04-03T05:33:31;25.23;40.97
79016;DHT22;68420;44.714;37.756;2023-04-03T05:34:34;25.22;40.95
79016;DHT22;68420;44.714;37.756;2023-04-03T05:35:37;25.25;40.96
79016;DHT22;68420;44.714;37.756;2023-04-03T05:36:45;25.20;40.92
79016;DHT22;68420;44.714;37.756;2023-04-03T05:37:48;25.25;40.92
79016;DHT22;68420;44.714;37.756;2023-04-03T05:38:51;25.22;40.90
79016;DHT22;68420;44.714;37.756;2023-04-03T05:39:53;25.22;40.92
79016;DHT22;68420;44.714;37.756;2023-04-03T05:40:54;25.23;40.93
79016;DHT22;68420;44.714;37.756;2023-04-03T05:41:56;25.22;40.91
79016;DHT22;68420;44.714;37.756;2023-04-03T05:42:57;25.23;40.90
79016;DHT22;68420;44.714;37.756;2023-04-03T05:44:00;25.22;40.92
79016;DHT22;68420;44.714;37.756;2023-04-03T05:45:02;25.22;40.89
79016;DHT22;68420;44.714;37.756;2023-04-03T05:46:03;25.23;40.89
79016;DHT22;68420;44.714;37.756;2023-04-03T05:47:05;25.25;40.98
79016;DHT22;68420;44.714;37.756;2023-04-03T05:48:07;25.23;40.91
79016;DHT22;68420;44.714;37.756;2023-04-03T05:49:08;25.22;40.91
79016;DHT22;68420;44.714;37.756;2023-04-03T05:50:11;25.26;40.88
79016;DHT22;68420;44.714;37.756;2023-04-03T05:51:22;25.22;40.87
79016;DHT22;68420;44.714;37.756;2023-04-03T05:52:29;25.23;40.92
79016;DHT22;68420;44.714;37.756;2023-04-03T05:53:33;25.20;40.91
79016;DHT22;68420;44.714;37.756;2023-04-03T05:54:38;25.25;40.84
79016;DHT22;68420;44.714;37.756;2023-04-03T05:55:49;25.23;40.88
79016;DHT22;68420;44.714;37.756;2023-04-03T05:56:50;25.23;40.86
79016;DHT22;68420;44.714;37.756;2023-04-03T05:57:53;25.23;40.86
79016;DHT22;68420;44.714;37.756;2023-04-03T05:58:55;25.22;40.91
79016;DHT22;68420;44.714;37.756;2023-04-03T05:59:57;25.22;40.91
79016;DHT22;68420;44.714;37.756;2023-04-03T06:00:59;25.20;40.88
79016;DHT22;68420;44.714;37.756;2023-04-03T06:02:01;25.23;40.90
79016;DHT22;68420;44.714;37.756;2023-04-03T06:03:04;25.22;40.87
79016;DHT22;68420;44.714;37.756;2023-04-03T06:04:06;25.23;40.89
79016;DHT22;68420;44.714;37.756;2023-04-03T06:05:10;25.23;40.88
79016;DHT22;68420;44.714;37.756;2023-04-03T06:06:13;25.23;40.87
79016;DHT22;68420;44.714;37.756;2023-04-03T06:07:17;25.25;40.90
79016;DHT22;68420;44.714;37.756;2023-04-03T06:08:19;25.25;40.86
79016;DHT22;68420;44.714;37.756;2023-04-03T06:09:24;25.25;40.87
79016;DHT22;68420;44.714;37.756;2023-04-03T06:10:25;25.25;40.83
79016;DHT22;68420;44.714;37.756;2023-04-03T06:11:27;25.26;40.84
79016;DHT22;68420;44.714;37.756;2023-04-03T06:12:28;25.25;40.87
79016;DHT22;68420;44.714;37.756;2023-04-03T06:13:31;25.22;40.87
79016;DHT22;68420;44.714;37.756;2023-04-03T06:14:33;25.25;40.86
79016;DHT22;68420;44.714;37.756;2023-04-03T06:15:36;25.29;40.79
79016;DHT22;68420;44.714;37.756;2023-04-03T06:16:39;25.27;40.81
79016;DHT22;68420;44.714;37.756;2023-04-03T06:17:41;25.26;40.74
79016;DHT22;68420;44.714;37.756;2023-04-03T06:18:43;25.26;40.75
79016;DHT22;68420;44.714;37.756;2023-04-03T06:19:45;25.29;40.80
79016;DHT22;68420;44.714;37.756;2023-04-03T06:20:46;25.27;40.81
79016;DHT22;68420;44.714;37.756;2023-04-03T06:21:48;25.27;40.78
79016;DHT22;68420;44.714;37.756;2023-04-03T06:22:49;25.26;40.81
79016;DHT22;68420;44.714;37.756;2023-04-03T06:23:51;25.27;40.78
79016;DHT22;68420;44.714;37.756;2023-04-03T06:24:53;25.27;40.74
79016;DHT22;68420;44.714;37.756;2023-04-03T06:25:54;25.23;40.78
79016;DHT22;68420;44.714;37.756;2023-04-03T06:26:56;25.30;40.74
79016;DHT22;68420;44.714;37.756;2023-04-03T06:27:58;25.27;40.73
79016;DHT22;68420;44.714;37.756;2023-04-03T06:28:59;25.26;40.74
79016;DHT22;68420;44.714;37.756;2023-04-03T06:30:01;25.29;40.80
79016;DHT22;68420;44.714;37.756;2023-04-03T06:31:02;25.29;40.75
79016;DHT22;68420;44.714;37.756;2023-04-03T06:32:04;25.29;40.74
79016;DHT22;68420;44.714;37.756;2023-04-03T06:33:05;25.27;40.77